| time (UTC) | temp F | wind direction | speed MPH | gust MPH | rain 1hr in | rain 24hr in | rain mn in | humidity % | barometer mb |
| 20260510033511 | 76 | 145 | 0.0 | 2.0 | 0.00 | 0.50 | 0.50 | 79 | 1010.9 |
| 20260510033024 | 76 | 145 | 0.0 | 2.0 | 0.00 | 0.50 | 0.50 | 79 | 1010.8 |
| 20260510032509 | 76 | 145 | 0.0 | 2.0 | 0.00 | 0.50 | 0.50 | 79 | 1010.7 |
| 20260510032011 | 76 | 145 | 0.0 | 2.0 | 0.00 | 0.50 | 0.50 | 79 | 1010.7 |
| 20260510031531 | 76 | 118 | 1.0 | 2.0 | 0.00 | 0.50 | 0.50 | 79 | 1010.7 |
| 20260510030507 | 76 | 117 | 1.0 | 3.0 | 0.00 | 0.50 | 0.50 | 79 | 1010.5 |
| 20260510030016 | 77 | 117 | 1.0 | 3.0 | 0.00 | 0.50 | 0.50 | 78 | 1010.4 |
| 20260510025510 | 77 | 130 | 1.0 | 2.0 | 0.00 | 0.50 | 0.50 | 78 | 1010.3 |
| 20260510025009 | 77 | 125 | 0.0 | 2.0 | 0.00 | 0.50 | 0.50 | 78 | 1010.2 |
| 20260510024522 | 77 | 104 | 0.0 | 2.0 | 0.00 | 0.50 | 0.50 | 78 | 1010.1 |
| 20260510024013 | 77 | 124 | 0.0 | 3.0 | 0.00 | 0.50 | 0.50 | 78 | 1010.0 |
| 20260510023508 | 77 | 130 | 1.0 | 3.0 | 0.00 | 0.50 | 0.50 | 78 | 1010.1 |
| 20260510023024 | 78 | 132 | 1.0 | 3.0 | 0.00 | 0.50 | 0.50 | 78 | 1010.1 |
| 20260510022508 | 78 | 130 | 1.0 | 2.0 | 0.00 | 0.50 | 0.50 | 78 | 1010.0 |
| 20260510022009 | 78 | 132 | 1.0 | 6.0 | 0.00 | 0.50 | 0.50 | 77 | 1010.0 |
| 20260510021533 | 78 | 119 | 1.0 | 6.0 | 0.00 | 0.50 | 0.50 | 76 | 1010.0 |
| 20260510021012 | 79 | 120 | 2.0 | 4.0 | 0.00 | 0.50 | 0.50 | 77 | 1009.9 |
| 20260510020508 | 79 | 121 | 1.0 | 3.0 | 0.00 | 0.50 | 0.50 | 77 | 1009.8 |
| 20260510020028 | 79 | 137 | 1.0 | 2.0 | 0.00 | 0.50 | 0.50 | 77 | 1009.7 |
| 20260510015504 | 80 | 114 | 1.0 | 2.0 | 0.00 | 0.50 | 0.50 | 76 | 1009.7 |
| 20260510015008 | 80 | 99 | 1.0 | 3.0 | 0.00 | 0.50 | 0.50 | 76 | 1009.6 |
| 20260510014517 | 80 | 113 | 1.0 | 4.0 | 0.00 | 0.50 | 0.50 | 76 | 1009.6 |
| 20260510014008 | 80 | 107 | 1.0 | 5.0 | 0.00 | 0.50 | 0.50 | 75 | 1009.6 |
| 20260510013511 | 81 | 94 | 2.0 | 8.0 | 0.00 | 0.50 | 0.50 | 74 | 1009.5 |
| 20260510013023 | 81 | 91 | 2.0 | 8.0 | 0.00 | 0.50 | 0.50 | 74 | 1009.4 |
| 20260510012507 | 81 | 100 | 3.0 | 7.0 | 0.00 | 0.50 | 0.50 | 73 | 1009.3 |
| 20260510012008 | 81 | 91 | 1.0 | 3.0 | 0.00 | 0.50 | 0.50 | 73 | 1009.3 |
| 20260510011524 | 82 | 84 | 1.0 | 3.0 | 0.00 | 0.50 | 0.50 | 72 | 1009.3 |
| 20260510011010 | 82 | 105 | 1.0 | 6.0 | 0.00 | 0.50 | 0.50 | 72 | 1009.3 |
| 20260510010508 | 82 | 126 | 2.0 | 4.0 | 0.00 | 0.50 | 0.50 | 71 | 1009.3 |
| 20260510010010 | 83 | 120 | 2.0 | 4.0 | 0.00 | 0.50 | 0.50 | 71 | 1009.3 |
| 20260510005505 | 83 | 146 | 1.0 | 4.0 | 0.00 | 0.50 | 0.50 | 70 | 1009.2 |
| 20260510005004 | 83 | 146 | 2.0 | 5.0 | 0.00 | 0.50 | 0.50 | 70 | 1009.2 |
| 20260510004518 | 83 | 54 | 2.0 | 6.0 | 0.00 | 0.50 | 0.50 | 70 | 1009.2 |
| 20260510004012 | 83 | 134 | 3.0 | 6.0 | 0.00 | 0.50 | 0.50 | 70 | 1009.2 |
| 20260510003507 | 84 | 111 | 4.0 | 6.0 | 0.00 | 0.50 | 0.50 | 69 | 1009.1 |
| 20260510003004 | 84 | 92 | 2.0 | 6.0 | 0.00 | 0.50 | 0.50 | 69 | 1009.0 |
| 20260510002502 | 84 | 84 | 2.0 | 6.0 | 0.00 | 0.50 | 0.50 | 68 | 1009.0 |
| 20260510002003 | 84 | 98 | 2.0 | 6.0 | 0.00 | 0.50 | 0.50 | 68 | 1009.0 |
| 20260510001004 | 84 | 115 | 3.0 | 4.0 | 0.00 | 0.50 | 0.50 | 67 | 1008.8 |
| 20260510000503 | 84 | 106 | 2.0 | 4.0 | 0.00 | 0.50 | 0.50 | 67 | 1008.8 |
| 20260510000010 | 84 | 88 | 2.0 | 4.0 | 0.00 | 0.50 | 0.50 | 67 | 1008.8 |
| 20260509235502 | 84 | 74 | 3.0 | 5.0 | 0.00 | 0.50 | 0.50 | 67 | 1008.8 |
| 20260509235008 | 84 | 65 | 3.0 | 6.0 | 0.00 | 0.50 | 0.50 | 67 | 1008.8 |
| 20260509234007 | 84 | 69 | 3.0 | 6.0 | 0.00 | 0.50 | 0.50 | 66 | 1008.7 |
| 20260509233503 | 84 | 89 | 2.0 | 4.0 | 0.00 | 0.50 | 0.50 | 67 | 1008.7 |
| 20260509232507 | 84 | 70 | 3.0 | 7.0 | 0.00 | 0.50 | 0.50 | 65 | 1008.5 |
| 20260509232003 | 84 | 85 | 4.0 | 7.0 | 0.00 | 0.50 | 0.50 | 65 | 1008.5 |
| 20260509231503 | 84 | 64 | 3.0 | 8.0 | 0.00 | 0.50 | 0.50 | 65 | 1008.5 |
| 20260509231004 | 84 | 65 | 3.0 | 8.0 | 0.00 | 0.50 | 0.50 | 67 | 1008.5 |
| 20260509230504 | 85 | 57 | 3.0 | 8.0 | 0.00 | 0.50 | 0.50 | 64 | 1008.5 |
| 20260509230008 | 85 | 94 | 3.0 | 6.0 | 0.00 | 0.50 | 0.50 | 66 | 1008.5 |
| 20260509225505 | 85 | 75 | 3.0 | 8.0 | 0.00 | 0.50 | 0.50 | 66 | 1008.6 |
| 20260509225004 | 85 | 64 | 2.0 | 8.0 | 0.00 | 0.50 | 0.50 | 65 | 1008.6 |
| 20260509224007 | 85 | 80 | 4.0 | 6.0 | 0.00 | 0.50 | 0.50 | 62 | 1008.5 |
| 20260509223503 | 85 | 114 | 2.0 | 4.0 | 0.00 | 0.50 | 0.50 | 61 | 1008.6 |
| 20260509223019 | 85 | 141 | 2.0 | 5.0 | 0.00 | 0.50 | 0.50 | 58 | 1008.6 |
| 20260509222506 | 85 | 128 | 2.0 | 5.0 | 0.00 | 0.50 | 0.50 | 56 | 1008.6 |
| 20260509222008 | 85 | 105 | 2.0 | 5.0 | 0.00 | 0.50 | 0.50 | 59 | 1008.6 |
| 20260509221522 | 85 | 133 | 1.0 | 3.0 | 0.00 | 0.50 | 0.50 | 60 | 1008.6 |
| 20260509221009 | 84 | 144 | 0.0 | 2.0 | 0.00 | 0.50 | 0.50 | 59 | 1008.6 |
| 20260509220503 | 83 | 102 | 0.0 | 2.0 | 0.00 | 0.50 | 0.50 | 60 | 1008.5 |
| 20260509220004 | 84 | 216 | 0.0 | 2.0 | 0.00 | 0.50 | 0.50 | 61 | 1008.3 |
| 20260509215504 | 83 | 213 | 0.0 | 3.0 | 0.00 | 0.50 | 0.50 | 63 | 1008.3 |
| 20260509215003 | 82 | 179 | 1.0 | 4.0 | 0.00 | 0.50 | 0.50 | 60 | 1008.5 |
| 20260509214011 | 79 | 225 | 1.0 | 6.0 | 0.09 | 0.50 | 0.50 | 65 | 1008.6 |
| 20260509213504 | 78 | 223 | 2.0 | 7.0 | 0.19 | 0.50 | 0.50 | 65 | 1008.6 |
| 20260509212507 | 74 | 218 | 3.0 | 9.0 | 0.45 | 0.50 | 0.50 | 72 | 1008.9 |
| 20260509212007 | 72 | 250 | 4.0 | 9.0 | 0.48 | 0.50 | 0.50 | 73 | 1009.0 |
| 20260509211520 | 71 | 229 | 3.0 | 8.0 | 0.48 | 0.50 | 0.50 | 71 | 1009.0 |
| 20260509211008 | 71 | 241 | 3.0 | 11.0 | 0.48 | 0.50 | 0.50 | 70 | 1009.1 |
| 20260509210507 | 71 | 179 | 4.0 | 11.0 | 0.48 | 0.50 | 0.50 | 72 | 1009.4 |
| 20260509210030 | 71 | 279 | 5.0 | 11.0 | 0.48 | 0.50 | 0.50 | 75 | 1009.1 |
| 20260509205504 | 71 | 243 | 5.0 | 12.0 | 0.48 | 0.50 | 0.50 | 71 | 1009.0 |
| 20260509205005 | 70 | 217 | 6.0 | 18.0 | 0.48 | 0.50 | 0.50 | 73 | 1009.0 |
| 20260509204509 | 70 | 215 | 5.0 | 20.0 | 0.47 | 0.49 | 0.49 | 77 | 1009.0 |
| 20260509204004 | 70 | 226 | 13.0 | 20.0 | 0.39 | 0.41 | 0.41 | 75 | 1009.7 |
| 20260509203503 | 72 | 257 | 10.0 | 29.0 | 0.29 | 0.31 | 0.31 | 65 | 1010.1 |
| 20260509203014 | 76 | 305 | 14.0 | 32.0 | 0.18 | 0.20 | 0.20 | 61 | 1010.6 |
| 20260509202504 | 80 | 326 | 12.0 | 32.0 | 0.03 | 0.05 | 0.05 | 64 | 1010.4 |
| 20260509202006 | 83 | 360 | 11.0 | 18.0 | 0.00 | 0.02 | 0.02 | 65 | 1009.5 |
| 20260509201010 | 87 | 93 | 3.0 | 7.0 | 0.00 | 0.02 | 0.02 | 59 | 1009.5 |
| 20260509200507 | 88 | 98 | 1.0 | 5.0 | 0.00 | 0.02 | 0.02 | 58 | 1009.4 |
| 20260509200020 | 89 | 176 | 1.0 | 8.0 | 0.00 | 0.02 | 0.02 | 56 | 1009.5 |
| 20260509195511 | 89 | 88 | 3.0 | 8.0 | 0.00 | 0.02 | 0.02 | 57 | 1009.5 |
| 20260509195012 | 90 | 150 | 3.0 | 8.0 | 0.00 | 0.02 | 0.02 | 59 | 1009.5 |
| 20260509194004 | 89 | 146 | 2.0 | 7.0 | 0.00 | 0.02 | 0.02 | 58 | 1009.6 |
| 20260509193506 | 89 | 217 | 2.0 | 10.0 | 0.00 | 0.02 | 0.02 | 59 | 1009.7 |
| 20260509192504 | 88 | 74 | 1.0 | 7.0 | 0.00 | 0.02 | 0.02 | 61 | 1009.8 |
| 20260509192005 | 89 | 126 | 2.0 | 7.0 | 0.00 | 0.02 | 0.02 | 58 | 1009.9 |
| 20260509191007 | 88 | 126 | 2.0 | 4.0 | 0.00 | 0.02 | 0.02 | 60 | 1009.9 |
| 20260509190506 | 89 | 144 | 2.0 | 7.0 | 0.00 | 0.02 | 0.02 | 60 | 1010.1 |
| 20260509185509 | 89 | 67 | 2.0 | 7.0 | 0.00 | 0.02 | 0.02 | 63 | 1010.2 |
| 20260509185007 | 88 | 148 | 2.0 | 6.0 | 0.00 | 0.02 | 0.02 | 64 | 1010.3 |
| 20260509184526 | 88 | 226 | 3.0 | 6.0 | 0.00 | 0.02 | 0.02 | 61 | 1010.3 |
| 20260509184010 | 87 | 188 | 2.0 | 7.0 | 0.00 | 0.02 | 0.02 | 63 | 1010.5 |
| 20260509183503 | 87 | 236 | 2.0 | 5.0 | 0.00 | 0.02 | 0.02 | 63 | 1010.7 |
| 20260509183009 | 86 | 352 | 1.0 | 4.0 | 0.00 | 0.02 | 0.02 | 64 | 1010.7 |
| 20260509182505 | 85 | 252 | 1.0 | 5.0 | 0.00 | 0.02 | 0.02 | 68 | 1010.9 |
| 20260509182003 | 86 | 9 | 1.0 | 5.0 | 0.00 | 0.02 | 0.02 | 66 | 1010.9 |
| 20260509181517 | 87 | 252 | 1.0 | 8.0 | 0.00 | 0.02 | 0.02 | 68 | 1010.9 |
| 20260509181008 | 85 | 126 | 3.0 | 8.0 | 0.00 | 0.02 | 0.02 | 67 | 1011.0 |
| 20260509180508 | 85 | 325 | 1.0 | 7.0 | 0.00 | 0.02 | 0.02 | 65 | 1011.0 |
| 20260509180019 | 86 | 207 | 1.0 | 8.0 | 0.00 | 0.02 | 0.02 | 70 | 1011.0 |
| 20260509175508 | 85 | 256 | 2.0 | 8.0 | 0.00 | 0.02 | 0.02 | 67 | 1011.0 |
| 20260509174007 | 84 | 263 | 1.0 | 7.0 | 0.00 | 0.02 | 0.02 | 71 | 1011.3 |
| 20260509173507 | 84 | 271 | 2.0 | 8.0 | 0.00 | 0.02 | 0.02 | 70 | 1011.4 |
| 20260509173024 | 85 | 213 | 3.0 | 8.0 | 0.00 | 0.02 | 0.02 | 70 | 1011.5 |
| 20260509172512 | 84 | 173 | 3.0 | 7.0 | 0.00 | 0.02 | 0.02 | 73 | 1011.6 |
| 20260509172004 | 83 | 160 | 2.0 | 7.0 | 0.00 | 0.02 | 0.02 | 73 | 1011.6 |
| 20260509171010 | 83 | 204 | 2.0 | 7.0 | 0.00 | 0.02 | 0.02 | 74 | 1011.6 |
| 20260509170507 | 82 | 113 | 2.0 | 7.0 | 0.00 | 0.02 | 0.02 | 76 | 1011.6 |
| 20260509165505 | 80 | 181 | 2.0 | 6.0 | 0.00 | 0.02 | 0.02 | 78 | 1011.8 |
| 20260509165006 | 80 | 153 | 2.0 | 6.0 | 0.00 | 0.02 | 0.02 | 79 | 1011.8 |
| 20260509164010 | 80 | 252 | 1.0 | 4.0 | 0.00 | 0.02 | 0.02 | 80 | 1011.9 |
| 20260509163510 | 80 | 248 | 1.0 | 4.0 | 0.00 | 0.02 | 0.02 | 80 | 1011.8 |
| 20260509162011 | 79 | 139 | 2.0 | 4.0 | 0.00 | 0.02 | 0.02 | 81 | 1011.8 |
| 20260509161525 | 79 | 195 | 1.0 | 5.0 | 0.00 | 0.02 | 0.02 | 82 | 1011.7 |
| 20260509161010 | 78 | 200 | 2.0 | 5.0 | 0.00 | 0.02 | 0.02 | 82 | 1011.7 |
| 20260509160504 | 79 | 128 | 1.0 | 4.0 | 0.00 | 0.02 | 0.02 | 83 | 1011.8 |
| 20260509160022 | 79 | 196 | 1.0 | 4.0 | 0.00 | 0.02 | 0.02 | 82 | 1011.7 |
| 20260509155509 | 78 | 216 | 2.0 | 4.0 | 0.00 | 0.02 | 0.02 | 82 | 1011.6 |
| 20260509155009 | 78 | 156 | 1.0 | 4.0 | 0.00 | 0.02 | 0.02 | 83 | 1011.6 |
| 20260509153508 | 79 | 164 | 2.0 | 6.0 | 0.00 | 0.02 | 0.02 | 82 | 1011.6 |
| 20260509152504 | 78 | 172 | 1.0 | 5.0 | 0.00 | 0.02 | 0.02 | 84 | 1011.5 |
| 20260509152006 | 78 | 225 | 1.0 | 5.0 | 0.00 | 0.02 | 0.02 | 85 | 1011.6 |
| 20260509151509 | 77 | 237 | 2.0 | 5.0 | 0.00 | 0.02 | 0.02 | 84 | 1011.7 |
| 20260509150504 | 77 | 153 | 1.0 | 6.0 | 0.00 | 0.02 | 0.02 | 86 | 1011.8 |
| 20260509145504 | 77 | 209 | 0.0 | 5.0 | 0.00 | 0.02 | 0.02 | 92 | 1011.6 |
| 20260509145008 | 76 | 182 | 1.0 | 5.0 | 0.00 | 0.02 | 0.02 | 92 | 1011.5 |
| 20260509144012 | 74 | 204 | 2.0 | 9.0 | 0.00 | 0.02 | 0.02 | 94 | 1011.7 |
| 20260509143512 | 74 | 65 | 2.0 | 9.0 | 0.00 | 0.02 | 0.02 | 94 | 1011.3 |
| 20260509142008 | 74 | 144 | 3.0 | 5.0 | 0.00 | 0.02 | 0.02 | 94 | 1011.4 |
| 20260509141510 | 73 | 94 | 1.0 | 4.0 | 0.00 | 0.02 | 0.02 | 95 | 1011.4 |
| 20260509141004 | 73 | 131 | 1.0 | 4.0 | 0.00 | 0.02 | 0.02 | 95 | 1011.5 |
| 20260509140503 | 73 | 133 | 1.0 | 2.0 | 0.00 | 0.02 | 0.02 | 94 | 1011.6 |
| 20260509140010 | 73 | 121 | 0.0 | 2.0 | 0.00 | 0.02 | 0.02 | 95 | 1011.8 |
| 20260509135505 | 73 | 132 | 1.0 | 2.0 | 0.00 | 0.02 | 0.02 | 95 | 1011.7 |
| 20260509135005 | 73 | 120 | 0.0 | 2.0 | 0.00 | 0.02 | 0.02 | 95 | 1011.6 |
| 20260509134010 | 73 | 136 | 0.0 | 2.0 | 0.00 | 0.02 | 0.02 | 95 | 1011.5 |
| 20260509133507 | 73 | 129 | 0.0 | 2.0 | 0.00 | 0.02 | 0.02 | 95 | 1011.5 |
| 20260509133021 | 73 | 137 | 1.0 | 2.0 | 0.00 | 0.02 | 0.02 | 95 | 1011.6 |
| 20260509132511 | 73 | 130 | 0.0 | 4.0 | 0.00 | 0.02 | 0.02 | 95 | 1011.6 |
| 20260509132010 | 73 | 136 | 0.0 | 6.0 | 0.00 | 0.02 | 0.02 | 94 | 1011.6 |
| 20260509131536 | 73 | 130 | 1.0 | 6.0 | 0.00 | 0.02 | 0.02 | 94 | 1011.5 |
| 20260509131011 | 73 | 121 | 2.0 | 5.0 | 0.00 | 0.02 | 0.02 | 94 | 1011.3 |
| 20260509130504 | 73 | 148 | 1.0 | 3.0 | 0.00 | 0.02 | 0.02 | 94 | 1011.3 |
| 20260509125511 | 72 | 129 | 1.0 | 6.0 | 0.00 | 0.02 | 0.02 | 94 | 1011.2 |
| 20260509125008 | 73 | 140 | 1.0 | 4.0 | 0.00 | 0.02 | 0.02 | 94 | 1011.2 |
| 20260509124520 | 72 | 140 | 2.0 | 4.0 | 0.00 | 0.02 | 0.02 | 94 | 1011.3 |
| 20260509124003 | 72 | 135 | 1.0 | 2.0 | 0.00 | 0.02 | 0.02 | 94 | 1011.3 |
| 20260509123506 | 72 | 127 | 0.0 | 3.0 | 0.00 | 0.02 | 0.02 | 94 | 1011.1 |
| 20260509123019 | 73 | 254 | 0.0 | 3.0 | 0.00 | 0.02 | 0.02 | 94 | 1010.8 |
| 20260509122507 | 73 | 266 | 1.0 | 6.0 | 0.00 | 0.02 | 0.02 | 95 | 1010.9 |
| 20260509122008 | 72 | 320 | 3.0 | 6.0 | 0.00 | 0.02 | 0.02 | 94 | 1011.1 |
| 20260509121527 | 72 | 324 | 3.0 | 5.0 | 0.00 | 0.02 | 0.02 | 94 | 1011.0 |
| 20260509121011 | 72 | 329 | 2.0 | 5.0 | 0.00 | 0.02 | 0.02 | 94 | 1011.0 |
| 20260509120507 | 72 | 317 | 2.0 | 5.0 | 0.00 | 0.02 | 0.02 | 94 | 1010.9 |
| 20260509120025 | 72 | 318 | 3.0 | 5.0 | 0.01 | 0.02 | 0.02 | 94 | 1011.0 |
| 20260509115503 | 72 | 316 | 2.0 | 5.0 | 0.01 | 0.02 | 0.02 | 94 | 1011.3 |
| 20260509115003 | 72 | 352 | 2.0 | 4.0 | 0.01 | 0.02 | 0.02 | 94 | 1011.4 |
| 20260509114008 | 72 | 321 | 3.0 | 7.0 | 0.01 | 0.02 | 0.02 | 94 | 1011.4 |
| 20260509113503 | 72 | 302 | 2.0 | 5.0 | 0.01 | 0.02 | 0.02 | 94 | 1011.4 |
| 20260509112507 | 72 | 346 | 0.0 | 2.0 | 0.01 | 0.02 | 0.02 | 94 | 1011.3 |
| 20260509112007 | 72 | 352 | 1.0 | 3.0 | 0.01 | 0.02 | 0.02 | 94 | 1011.7 |
| 20260509111522 | 72 | 331 | 0.0 | 4.0 | 0.01 | 0.02 | 0.02 | 94 | 1011.8 |
| 20260509111008 | 72 | 22 | 1.0 | 7.0 | 0.01 | 0.02 | 0.02 | 94 | 1011.9 |
| 20260509110509 | 72 | 352 | 4.0 | 7.0 | 0.01 | 0.02 | 0.02 | 94 | 1011.8 |
| 20260509110024 | 72 | 32 | 2.0 | 5.0 | 0.00 | 0.01 | 0.01 | 94 | 1012.0 |
| 20260509105511 | 72 | 28 | 1.0 | 4.0 | 0.00 | 0.01 | 0.01 | 94 | 1012.0 |
| 20260509105010 | 72 | 50 | 2.0 | 4.0 | 0.00 | 0.01 | 0.01 | 94 | 1012.1 |
| 20260509104527 | 72 | 360 | 2.0 | 3.0 | 0.00 | 0.01 | 0.01 | 94 | 1011.9 |
| 20260509104004 | 72 | 319 | 1.0 | 3.0 | 0.00 | 0.01 | 0.01 | 94 | 1011.8 |
| 20260509103504 | 72 | 15 | 1.0 | 3.0 | 0.00 | 0.01 | 0.01 | 94 | 1011.8 |
| 20260509103015 | 72 | 360 | 2.0 | 3.0 | 0.00 | 0.01 | 0.01 | 94 | 1011.9 |
| 20260509102507 | 72 | 34 | 0.0 | 2.0 | 0.00 | 0.01 | 0.01 | 94 | 1011.8 |
| 20260509102010 | 72 | 36 | 0.0 | 0.0 | 0.00 | 0.01 | 0.01 | 94 | 1011.6 |
| 20260509101532 | 72 | 36 | 0.0 | 0.0 | 0.00 | 0.01 | 0.01 | 94 | 1011.3 |
| 20260509101008 | 72 | 36 | 0.0 | 0.0 | 0.00 | 0.01 | 0.01 | 94 | 1011.2 |
| 20260509100507 | 72 | 36 | 0.0 | 1.0 | 0.00 | 0.01 | 0.01 | 94 | 1011.1 |
| 20260509100025 | 72 | 36 | 0.0 | 1.0 | 0.00 | 0.01 | 0.01 | 94 | 1011.1 |
| 20260509095508 | 72 | 36 | 0.0 | 1.0 | 0.00 | 0.01 | 0.01 | 94 | 1010.9 |
| 20260509095008 | 72 | 36 | 0.0 | 0.0 | 0.01 | 0.01 | 0.01 | 94 | 1010.8 |
| 20260509094526 | 72 | 36 | 0.0 | 1.0 | 0.01 | 0.01 | 0.01 | 94 | 1010.8 |
| 20260509094008 | 72 | 36 | 0.0 | 1.0 | 0.01 | 0.01 | 0.01 | 94 | 1010.7 |
| 20260509093012 | 72 | 36 | 0.0 | 2.0 | 0.01 | 0.01 | 0.01 | 94 | 1010.9 |
| 20260509092504 | 72 | 36 | 0.0 | 2.0 | 0.01 | 0.01 | 0.01 | 94 | 1010.9 |
| 20260509092004 | 72 | 36 | 0.0 | 2.0 | 0.01 | 0.01 | 0.01 | 94 | 1010.7 |
| 20260509091520 | 72 | 36 | 0.0 | 2.0 | 0.01 | 0.01 | 0.01 | 94 | 1010.6 |
| 20260509091004 | 72 | 36 | 0.0 | 2.0 | 0.01 | 0.01 | 0.01 | 94 | 1010.5 |
| 20260509090508 | 72 | 36 | 1.0 | 2.0 | 0.01 | 0.01 | 0.01 | 93 | 1010.6 |
| 20260509090021 | 72 | 36 | 1.0 | 2.0 | 0.01 | 0.01 | 0.01 | 93 | 1010.7 |
| 20260509085508 | 72 | 36 | 0.0 | 2.0 | 0.01 | 0.01 | 0.01 | 93 | 1010.7 |
| 20260509085007 | 72 | 36 | 1.0 | 3.0 | 0.00 | 0.00 | 0.00 | 93 | 1010.8 |
| 20260509084523 | 72 | 36 | 1.0 | 3.0 | 0.00 | 0.00 | 0.00 | 93 | 1010.8 |
| 20260509084006 | 72 | 36 | 1.0 | 4.0 | 0.00 | 0.00 | 0.00 | 93 | 1010.8 |
| 20260509083513 | 72 | 48 | 2.0 | 4.0 | 0.00 | 0.00 | 0.00 | 93 | 1010.9 |
| 20260509083025 | 72 | 40 | 2.0 | 4.0 | 0.00 | 0.00 | 0.00 | 93 | 1010.9 |
| 20260509082511 | 72 | 63 | 2.0 | 3.0 | 0.00 | 0.00 | 0.00 | 93 | 1011.0 |
| 20260509082007 | 72 | 13 | 2.0 | 3.0 | 0.00 | 0.00 | 0.00 | 93 | 1011.1 |
| 20260509081514 | 72 | 31 | 2.0 | 3.0 | 0.00 | 0.00 | 0.00 | 93 | 1011.2 |
| 20260509081008 | 72 | 25 | 1.0 | 3.0 | 0.00 | 0.00 | 0.00 | 93 | 1011.2 |
| 20260509080506 | 72 | 63 | 0.0 | 3.0 | 0.00 | 0.00 | 0.00 | 93 | 1010.9 |
| 20260509080022 | 72 | 65 | 1.0 | 2.0 | 0.00 | 0.00 | 0.00 | 93 | 1010.7 |
| 20260509075505 | 72 | 102 | 0.0 | 3.0 | 0.00 | 0.00 | 0.00 | 92 | 1010.7 |
| 20260509075008 | 72 | 102 | 1.0 | 3.0 | 0.00 | 0.00 | 0.00 | 92 | 1010.7 |
| 20260509074522 | 72 | 102 | 1.0 | 3.0 | 0.00 | 0.00 | 0.00 | 92 | 1010.8 |
| 20260509074008 | 72 | 98 | 1.0 | 2.0 | 0.00 | 0.00 | 0.00 | 92 | 1010.7 |
| 20260509073508 | 72 | 165 | 1.0 | 2.0 | 0.00 | 0.00 | 0.00 | 92 | 1010.9 |
| 20260509073025 | 72 | 119 | 0.0 | 3.0 | 0.00 | 0.00 | 0.00 | 92 | 1011.1 |
| 20260509072509 | 72 | 119 | 1.0 | 3.0 | 0.00 | 0.00 | 0.00 | 92 | 1010.9 |
| 20260509072010 | 72 | 129 | 0.0 | 3.0 | 0.00 | 0.00 | 0.00 | 92 | 1010.9 |
| 20260509071526 | 72 | 129 | 0.0 | 3.0 | 0.00 | 0.00 | 0.00 | 92 | 1011.1 |
| 20260509071010 | 72 | 213 | 0.0 | 2.0 | 0.00 | 0.00 | 0.00 | 92 | 1011.1 |
| 20260509070507 | 72 | 177 | 0.0 | 5.0 | 0.00 | 0.00 | 0.00 | 92 | 1011.2 |
| 20260509070018 | 72 | 127 | 0.0 | 5.0 | 0.00 | 0.00 | 0.00 | 92 | 1011.0 |
| 20260509065506 | 72 | 112 | 1.0 | 4.0 | 0.00 | 0.00 | 0.00 | 92 | 1010.9 |
| 20260509065008 | 72 | 133 | 1.0 | 5.0 | 0.00 | 0.00 | 0.00 | 92 | 1010.9 |
| 20260509064524 | 72 | 121 | 1.0 | 7.0 | 0.00 | 0.00 | 0.00 | 92 | 1010.8 |
| 20260509064010 | 72 | 136 | 3.0 | 7.0 | 0.00 | 0.00 | 0.00 | 92 | 1010.8 |
| 20260509063511 | 72 | 123 | 2.0 | 5.0 | 0.00 | 0.00 | 0.00 | 92 | 1010.7 |
| 20260509063007 | 72 | 109 | 2.0 | 5.0 | 0.00 | 0.00 | 0.00 | 92 | 1010.7 |
| 20260509062503 | 72 | 126 | 1.0 | 6.0 | 0.00 | 0.00 | 0.00 | 92 | 1010.8 |
| 20260509062004 | 72 | 116 | 1.0 | 6.0 | 0.00 | 0.00 | 0.00 | 92 | 1010.9 |
| 20260509061508 | 72 | 230 | 1.0 | 5.0 | 0.00 | 0.00 | 0.00 | 92 | 1010.8 |
| 20260509061008 | 72 | 169 | 2.0 | 5.0 | 0.00 | 0.00 | 0.00 | 92 | 1010.9 |
| 20260509060505 | 72 | 180 | 0.0 | 7.0 | 0.00 | 0.00 | 0.00 | 92 | 1010.8 |
| 20260509060014 | 72 | 126 | 3.0 | 8.0 | 0.00 | 0.00 | 0.00 | 92 | 1010.7 |
| 20260509055508 | 72 | 107 | 4.0 | 8.0 | 0.00 | 0.00 | 0.00 | 91 | 1010.4 |
| 20260509055007 | 72 | 138 | 3.0 | 8.0 | 0.00 | 0.00 | 0.00 | 91 | 1010.5 |
| 20260509054520 | 72 | 167 | 1.0 | 7.0 | 0.00 | 0.00 | 0.00 | 91 | 1010.8 |
| 20260509054000 | 72 | 218 | 2.0 | 8.0 | 0.00 | 0.00 | 0.00 | 91 | 1010.8 |
| 20260509053504 | 72 | 195 | 4.0 | 8.0 | 0.00 | 0.00 | 0.00 | 91 | 1010.8 |
| 20260509053004 | 72 | 155 | 2.0 | 8.0 | 0.00 | 0.00 | 0.00 | 91 | 1010.8 |
| 20260509052504 | 72 | 147 | 1.0 | 7.0 | 0.00 | 0.00 | 0.00 | 91 | 1010.7 |
| 20260509052004 | 71 | 137 | 4.0 | 7.0 | 0.00 | 0.00 | 0.00 | 91 | 1010.7 |
| 20260509051514 | 71 | 154 | 3.0 | 6.0 | 0.00 | 0.00 | 0.00 | 91 | 1010.5 |
| 20260509051004 | 71 | 119 | 0.0 | 4.0 | 0.00 | 0.00 | 0.00 | 90 | 1010.4 |
| 20260509050504 | 71 | 117 | 1.0 | 5.0 | 0.00 | 0.00 | 0.00 | 90 | 1010.4 |
| 20260509050028 | 71 | 144 | 3.0 | 6.0 | 0.00 | 0.00 | 0.00 | 90 | 1010.3 |
| 20260509045505 | 71 | 146 | 2.0 | 6.0 | 0.00 | 0.00 | 0.00 | 90 | 1010.3 |
| 20260509045004 | 71 | 119 | 2.0 | 6.0 | 0.00 | 0.00 | 0.00 | 90 | 1010.2 |
| 20260509044517 | 71 | 125 | 1.0 | 4.0 | 0.00 | 0.00 | 0.00 | 90 | 1010.3 |
| 20260509044007 | 71 | 157 | 1.0 | 4.0 | 0.00 | 0.00 | 0.00 | 89 | 1010.3 |
| 20260509043508 | 71 | 123 | 0.0 | 2.0 | 0.00 | 0.00 | 0.00 | 89 | 1010.4 |
| 20260509043004 | 71 | 123 | 0.0 | 2.0 | 0.00 | 0.00 | 0.00 | 89 | 1010.5 |
| 20260509042500 | 72 | 123 | 0.0 | 2.0 | 0.00 | 0.00 | 0.00 | 89 | 1010.6 |
| 20260509042005 | 72 | 123 | 0.0 | 1.0 | 0.00 | 0.00 | 0.00 | 89 | 1010.7 |
| 20260509041508 | 72 | 123 | 0.0 | 2.0 | 0.00 | 0.00 | 0.00 | 88 | 1010.7 |
| 20260509041003 | 72 | 123 | 0.0 | 2.0 | 0.00 | 0.00 | 0.00 | 88 | 1010.7 |
| 20260509040508 | 72 | 123 | 0.0 | 2.0 | 0.00 | 0.00 | 0.00 | 88 | 1010.8 |
| 20260509040012 | 72 | 123 | 0.0 | 2.0 | 0.00 | 0.00 | 0.00 | 87 | 1010.9 |
| 20260509035508 | 73 | 123 | 0.0 | 2.0 | 0.00 | 0.00 | 0.00 | 87 | 1010.9 |
| 20260509035005 | 72 | 123 | 0.0 | 2.0 | 0.00 | 0.00 | 0.00 | 88 | 1010.9 |
| 20260509034536 | 72 | 123 | 0.0 | 2.0 | 0.00 | 0.00 | 0.00 | 87 | 1010.8 |
| 20260509034005 | 73 | 123 | 0.0 | 2.0 | 0.00 | 0.00 | 0.00 | 87 | 1010.6 |